createdAt,value
2019-04-06T00:00:12.959Z,73.16
2019-04-06T00:02:43.777Z,73.28
2019-04-06T00:05:12.476Z,73.53
2019-04-06T00:07:44.021Z,73.58
2019-04-06T00:10:14.616Z,73.71
2019-04-06T00:12:42.882Z,73.67
2019-04-06T00:15:14.520Z,73.11
2019-04-06T00:17:44.528Z,73.45
2019-04-06T00:20:14.778Z,73.65
2019-04-06T00:22:44.582Z,73.65
2019-04-06T00:25:14.607Z,73.11
2019-04-06T00:27:44.729Z,73.11
2019-04-06T00:30:14.692Z,72.68
2019-04-06T00:33:05.624Z,73.35
2019-04-06T00:35:35.773Z,73.45
2019-04-06T00:38:05.978Z,74.34
2019-04-06T00:40:35.075Z,75.73
2019-04-06T00:43:04.485Z,75.80
2019-04-06T00:45:33.751Z,76.08
2019-04-06T00:48:01.934Z,76.08
2019-04-06T00:50:31.042Z,75.12
2019-04-06T00:53:00.368Z,75.60
2019-04-06T00:55:29.831Z,74.70
2019-04-06T00:57:58.747Z,74.92
2019-04-06T01:00:27.961Z,74.10
2019-04-06T01:02:57.011Z,73.94
2019-04-06T01:05:27.155Z,73.80
2019-04-06T01:07:56.094Z,73.99
2019-04-06T01:10:28.133Z,74.01
2019-04-06T01:12:57.497Z,74.65
2019-04-06T01:15:26.894Z,74.85
2019-04-06T01:17:56.739Z,74.85
2019-04-06T01:20:25.056Z,74.82
2019-04-06T01:22:53.980Z,74.26
2019-04-06T01:25:22.933Z,74.63
2019-04-06T01:27:51.712Z,74.48
2019-04-06T01:30:20.036Z,74.97
2019-04-06T01:32:49.047Z,75.50
2019-04-06T01:35:19.058Z,75.29
2019-04-06T01:37:48.497Z,75.73
2019-04-06T01:40:18.106Z,75.26
2019-04-06T01:42:48.471Z,75.05
2019-04-06T01:45:18.060Z,76.27
2019-04-06T01:47:47.942Z,76.55
2019-04-06T01:50:17.531Z,76.18
2019-04-06T01:52:47.393Z,75.59
2019-04-06T01:55:17.003Z,75.59
2019-04-06T01:57:46.979Z,75.67
2019-04-06T02:00:16.730Z,75.96
2019-04-06T02:02:48.285Z,77.13
2019-04-06T02:05:17.305Z,76.94
2019-04-06T02:07:46.731Z,77.62
2019-04-06T02:10:14.983Z,76.28
2019-04-06T02:12:44.109Z,75.88
2019-04-06T02:15:13.970Z,74.58
2019-04-06T02:17:44.291Z,75.80
2019-04-06T02:20:14.053Z,75.22
2019-04-06T02:22:45.438Z,73.58
2019-04-06T02:25:16.157Z,73.68
2019-04-06T02:27:45.742Z,74.85
2019-04-06T02:30:25.593Z,77.15
2019-04-06T02:33:02.904Z,76.84
2019-04-06T02:35:41.303Z,77.21
2019-04-06T02:38:28.699Z,77.92
2019-04-06T02:41:26.469Z,76.86
2019-04-06T02:43:55.566Z,77.60
2019-04-06T02:46:24.053Z,77.60
2019-04-06T02:48:53.132Z,78.16
2019-04-06T02:51:22.506Z,79.56
2019-04-06T02:53:51.776Z,79.08
2019-04-06T02:56:20.997Z,79.08
2019-04-06T02:58:50.244Z,78.48
2019-04-06T03:01:19.769Z,77.72
2019-04-06T03:03:49.556Z,77.90
2019-04-06T03:06:21.485Z,77.32
2019-04-06T03:08:50.773Z,76.61
2019-04-06T03:11:20.142Z,76.60
2019-04-06T03:13:49.437Z,76.62
2019-04-06T03:16:18.930Z,77.49
2019-04-06T03:18:48.914Z,77.20
2019-04-06T03:21:19.037Z,77.86
2019-04-06T03:23:51.945Z,77.59
2019-04-06T03:26:20.619Z,76.77
2019-04-06T03:28:48.900Z,76.68
2019-04-06T03:31:24.009Z,77.14
2019-04-06T03:33:50.005Z,77.47
2019-04-06T03:36:19.846Z,77.79
2019-04-06T03:38:49.470Z,77.13
2019-04-06T03:41:18.761Z,76.70
2019-04-06T03:46:09.504Z,77.36
2019-04-06T03:48:38.838Z,77.84
2019-04-06T03:51:07.931Z,78.12
2019-04-06T03:53:36.994Z,78.86
2019-04-06T03:56:05.966Z,78.62
2019-04-06T03:58:34.957Z,78.15
2019-04-06T04:01:04.006Z,77.83
2019-04-06T07:02:27.927Z,49.16
2019-04-06T07:24:48.488Z,51.13
2019-04-06T07:27:17.917Z,51.13
2019-04-06T07:29:51.244Z,49.77
2019-04-06T07:32:21.629Z,50.82
2019-04-06T07:34:50.950Z,49.91
2019-04-06T07:37:20.723Z,49.79
2019-04-06T07:39:52.419Z,51.77
2019-04-06T07:42:43.485Z,52.22
2019-04-06T07:45:13.427Z,49.89
2019-04-06T07:47:42.873Z,49.89
2019-04-06T07:50:12.558Z,50.44
2019-04-06T07:52:41.543Z,50.30
2019-04-06T07:55:10.848Z,51.25
2019-04-06T07:57:39.993Z,51.45
2019-04-06T08:00:10.597Z,49.05
2019-04-06T08:02:39.573Z,47.38
2019-04-06T08:05:09.112Z,45.96
2019-04-06T08:07:38.446Z,45.96
2019-04-06T08:10:07.810Z,46.61
2019-04-06T08:12:37.151Z,45.34
2019-04-06T08:15:07.907Z,44.03
2019-04-06T08:17:37.558Z,42.10
2019-04-06T08:20:06.937Z,42.36
2019-04-06T08:22:36.394Z,44.17
2019-04-06T08:25:06.574Z,42.05
2019-04-06T08:27:35.879Z,40.46
2019-04-06T08:30:07.951Z,40.46
2019-04-06T08:32:37.548Z,41.59
2019-04-06T08:35:08.110Z,40.33
2019-04-06T08:37:36.955Z,39.62
2019-04-06T08:40:06.960Z,39.42
2019-04-06T08:42:36.131Z,38.58
2019-04-06T08:45:07.043Z,37.22
2019-04-06T08:47:39.377Z,37.88
2019-04-06T08:50:08.962Z,36.91
2019-04-06T08:52:39.026Z,36.90
2019-04-06T08:55:09.580Z,36.85
2019-04-06T08:57:38.158Z,36.93
2019-04-06T09:00:08.567Z,35.69
2019-04-06T09:02:37.705Z,34.71
2019-04-06T09:05:06.536Z,34.71
2019-04-06T09:07:35.682Z,34.17
2019-04-06T09:10:04.650Z,33.57
2019-04-06T09:12:32.937Z,34.75
2019-04-06T09:15:02.101Z,34.75
2019-04-06T09:17:32.138Z,34.35
2019-04-06T09:20:01.121Z,35.05
2019-04-06T09:22:30.050Z,34.25
2019-04-06T09:24:59.304Z,33.10
2019-04-06T09:27:28.529Z,32.33
2019-04-06T09:30:00.463Z,31.19
2019-04-06T09:32:29.430Z,31.19
2019-04-06T09:35:00.030Z,30.01
2019-04-06T09:37:30.563Z,29.16
2019-04-06T09:39:59.587Z,29.36
2019-04-06T09:42:34.915Z,27.83
2019-04-06T09:45:25.720Z,27.83
2019-04-06T09:48:31.206Z,26.79
2019-04-06T09:51:26.564Z,26.96
2019-04-06T09:54:24.451Z,24.59
2019-04-06T09:57:13.686Z,24.59
2019-04-06T09:59:49.005Z,23.83
2019-04-06T10:02:31.945Z,23.83
2019-04-06T10:05:39.443Z,22.88
2019-04-06T10:08:27.827Z,22.21
2019-04-06T10:11:31.853Z,22.95
2019-04-06T10:14:14.588Z,21.71
2019-04-06T10:17:09.705Z,24.85
2019-04-06T10:19:45.069Z,24.85
2019-04-06T10:22:23.589Z,24.63
2019-04-06T10:25:11.254Z,27.42
2019-04-06T10:27:55.827Z,27.42
2019-04-06T10:30:54.187Z,27.47
2019-04-06T10:33:41.893Z,32.27
2019-04-06T10:36:31.762Z,35.62
2019-04-06T10:39:24.360Z,37.37
2019-04-06T10:42:19.215Z,39.85
2019-04-06T10:45:10.674Z,40.01
2019-04-06T10:48:02.401Z,41.33
2019-04-06T10:50:56.113Z,42.87
2019-04-06T10:53:59.998Z,42.67
2019-04-06T10:56:51.681Z,41.34
2019-04-06T10:59:44.069Z,41.55
2019-04-06T11:02:32.150Z,36.86
2019-04-06T11:05:29.001Z,33.25
2019-04-06T11:08:06.013Z,32.28
2019-04-06T11:11:04.517Z,31.83
2019-04-06T11:13:56.336Z,33.46
2019-04-06T11:16:37.943Z,33.46
2019-04-06T11:19:30.076Z,36.54
2019-04-06T11:22:14.893Z,37.12
2019-04-06T11:25:03.538Z,37.50
2019-04-06T11:27:57.931Z,36.31
2019-04-06T11:31:03.560Z,36.31
2019-04-06T11:33:42.191Z,36.26
2019-04-06T11:36:29.954Z,36.42
2019-04-06T11:39:18.603Z,35.87
2019-04-06T11:42:06.321Z,34.70
2019-04-06T11:44:40.695Z,33.09
2019-04-06T11:47:28.308Z,31.05
2019-04-06T11:50:22.904Z,32.55
2019-04-06T11:53:15.676Z,33.93
2019-04-06T11:55:57.192Z,36.22
2019-04-06T11:58:55.055Z,36.90
2019-04-06T12:01:41.913Z,37.90
2019-04-06T12:04:36.069Z,36.44
2019-04-06T12:07:13.310Z,35.03
2019-04-06T12:10:10.409Z,33.63
2019-04-06T12:14:42.707Z,33.17
2019-04-06T12:18:45.878Z,32.17
2019-04-06T12:36:18.597Z,35.70
2019-04-06T12:44:13.405Z,37.82
2019-04-06T13:03:55.517Z,40.41
2019-04-06T13:49:58.874Z,31.84
2019-04-06T13:54:00.459Z,33.36
2019-04-06T14:01:48.917Z,34.86
2019-04-06T14:14:58.961Z,29.49
2019-04-06T14:18:58.171Z,30.73
2019-04-06T14:23:08.405Z,34.50
2019-04-06T14:27:00.222Z,34.50
2019-04-06T14:31:10.905Z,34.51
2019-04-06T16:09:15.610Z,38.25
2019-04-06T16:12:19.605Z,37.89
2019-04-06T16:15:11.736Z,36.79
2019-04-06T16:18:04.748Z,36.79
2019-04-06T16:20:58.841Z,36.79
2019-04-06T16:24:01.707Z,36.97
2019-04-06T16:26:42.129Z,37.61
2019-04-06T16:29:31.024Z,36.87
2019-04-06T16:32:19.837Z,36.08
2019-04-06T16:35:21.557Z,35.90
2019-04-06T16:38:02.174Z,35.72
2019-04-06T16:41:00.208Z,35.72
2019-04-06T16:43:40.489Z,36.06
2019-04-06T16:46:26.835Z,36.06
2019-04-06T16:49:15.107Z,36.04
2019-04-06T16:52:10.437Z,36.21
2019-04-06T16:54:46.465Z,37.18
2019-04-06T16:57:50.627Z,37.18
2019-04-06T17:00:51.572Z,37.02
2019-04-06T17:03:55.641Z,37.48
2019-04-06T17:06:42.911Z,37.07
2019-04-06T17:09:35.191Z,37.36
2019-04-06T17:12:26.941Z,36.96
2019-04-06T17:15:25.044Z,38.09
2019-04-06T17:18:13.163Z,37.77
2019-04-06T17:21:02.754Z,38.91
2019-04-06T17:23:50.443Z,39.86
2019-04-06T17:26:43.307Z,40.08
2019-04-06T17:29:29.112Z,40.55
2019-04-06T17:32:09.162Z,41.05
2019-04-06T17:35:03.870Z,41.19
2019-04-06T17:37:42.530Z,41.50
2019-04-06T17:40:44.817Z,43.58
2019-04-06T17:43:32.293Z,43.58
2019-04-06T17:46:23.626Z,43.66
2019-04-06T17:49:16.079Z,45.62
2019-04-06T17:51:51.084Z,46.12
2019-04-06T17:54:34.888Z,46.12
2019-04-06T17:57:18.682Z,46.42
2019-04-06T18:00:07.403Z,47.31
2019-04-06T18:02:51.010Z,47.63
2019-04-06T18:05:38.288Z,47.66
2019-04-06T18:08:30.434Z,47.76
2019-04-06T18:11:19.343Z,48.57
2019-04-06T18:13:48.094Z,48.79
2019-04-06T18:16:23.296Z,48.86
2019-04-06T18:19:00.347Z,49.01
2019-04-06T18:21:31.153Z,50.90
2019-04-06T18:24:00.954Z,51.47
2019-04-06T18:26:30.033Z,51.60
2019-04-06T18:28:59.123Z,52.21
2019-04-06T18:31:47.306Z,51.72
2019-04-06T18:34:17.591Z,52.25
2019-04-06T18:37:14.885Z,53.21
2019-04-06T18:39:44.209Z,53.80
2019-04-06T18:42:13.481Z,54.53
2019-04-06T18:44:42.574Z,54.16
2019-04-06T18:47:11.801Z,54.09
2019-04-06T18:49:42.469Z,54.09
2019-04-06T18:52:12.245Z,54.99
2019-04-06T18:54:41.541Z,54.99
2019-04-06T18:57:10.627Z,55.99
2019-04-06T18:59:40.293Z,55.50
2019-04-06T19:02:09.783Z,55.50
2019-04-06T19:04:39.650Z,55.54
2019-04-06T19:07:09.666Z,55.89
2019-04-06T19:09:38.867Z,56.40
2019-04-06T19:12:07.915Z,57.11
2019-04-06T19:14:37.468Z,57.25
2019-04-06T19:17:06.767Z,57.63
2019-04-06T19:19:36.371Z,58.33
2019-04-06T19:22:06.134Z,58.89
2019-04-06T19:24:36.173Z,58.88
2019-04-06T19:27:05.779Z,59.85
2019-04-06T19:29:33.991Z,59.96
2019-04-06T19:32:03.154Z,59.85
2019-04-06T19:34:32.571Z,60.27
2019-04-06T19:37:02.502Z,60.52
2019-04-06T19:39:31.851Z,60.78
2019-04-06T19:42:01.814Z,60.78
2019-04-06T19:44:31.508Z,61.21
2019-04-06T19:47:00.147Z,60.80
2019-04-06T19:49:29.653Z,60.37
2019-04-06T19:51:59.049Z,59.91
2019-04-06T19:54:28.610Z,61.40
2019-04-06T19:56:57.962Z,62.31
2019-04-06T19:59:27.724Z,62.31
2019-04-06T20:01:57.519Z,61.85
2019-04-06T20:04:27.178Z,62.32
2019-04-06T20:06:56.982Z,62.89
2019-04-06T20:09:27.571Z,62.89
2019-04-06T20:12:04.788Z,62.50
2019-04-06T20:14:28.601Z,62.50
2019-04-06T20:16:57.971Z,63.85
2019-04-06T20:19:27.751Z,63.85
2019-04-06T20:21:56.665Z,63.62
2019-04-06T20:24:25.652Z,63.53
2019-04-06T20:26:56.307Z,63.53
2019-04-06T20:29:26.301Z,63.83
2019-04-06T20:31:56.347Z,63.48
2019-04-06T20:34:26.936Z,64.04
2019-04-06T20:36:57.002Z,63.96
2019-04-06T20:39:27.149Z,64.29
2019-04-06T20:41:57.664Z,63.57
2019-04-06T20:44:27.793Z,64.50
2019-04-06T20:46:57.718Z,64.47
2019-04-06T20:49:27.355Z,65.05
2019-04-06T20:51:58.797Z,65.20
2019-04-06T20:54:29.728Z,65.20
2019-04-06T20:57:00.869Z,66.05
2019-04-06T20:59:30.498Z,66.81
2019-04-06T21:02:00.117Z,66.50
2019-04-06T21:04:29.832Z,66.59
2019-04-06T21:07:01.938Z,64.49
2019-04-06T21:09:31.814Z,66.41
2019-04-06T21:12:01.568Z,65.78
2019-04-06T21:14:32.949Z,66.88
2019-04-06T21:17:02.528Z,66.88
2019-04-06T21:19:32.324Z,67.57
2019-04-06T21:22:02.335Z,67.87
2019-04-06T21:24:31.775Z,68.00
2019-04-06T21:27:02.187Z,68.03
2019-04-06T21:29:32.293Z,67.76
2019-04-06T21:32:06.626Z,68.19
2019-04-06T21:34:37.322Z,68.19
2019-04-06T21:37:06.969Z,67.99
2019-04-06T21:39:40.415Z,68.66
2019-04-06T21:42:12.913Z,67.94
2019-04-06T21:44:46.746Z,65.67
2019-04-06T21:47:18.431Z,65.82
2019-04-06T21:49:48.967Z,67.80
2019-04-06T21:52:20.894Z,67.50
2019-04-06T21:54:51.968Z,68.17
2019-04-06T21:57:21.798Z,68.19
2019-04-06T21:59:51.517Z,68.50
2019-04-06T22:02:20.460Z,67.56
2019-04-06T22:04:50.377Z,68.90
2019-04-06T22:07:19.456Z,68.73
2019-04-06T22:09:49.198Z,68.36
2019-04-06T22:12:19.185Z,67.60
2019-04-06T22:14:50.798Z,67.87
2019-04-06T22:17:21.206Z,68.54
2019-04-06T22:19:50.616Z,67.04
2019-04-06T22:22:20.007Z,67.40
2019-04-06T22:24:50.049Z,67.33
2019-04-06T22:27:19.730Z,66.82
2019-04-06T22:29:47.996Z,66.87
2019-04-06T22:32:17.465Z,66.19
2019-04-06T22:34:47.579Z,67.06
2019-04-06T22:37:17.862Z,67.65
2019-04-06T22:39:49.370Z,68.05
2019-04-06T22:42:18.540Z,67.04
2019-04-06T22:44:48.201Z,68.72
2019-04-06T22:47:17.780Z,68.37
2019-04-06T22:49:48.172Z,68.37
2019-04-06T22:52:19.246Z,69.81
2019-04-06T22:54:49.110Z,69.71
2019-04-06T22:57:18.730Z,70.23
2019-04-06T22:59:47.432Z,71.46
2019-04-06T23:02:16.800Z,72.17
2019-04-06T23:05:04.301Z,72.38
2019-04-06T23:07:35.245Z,72.28
2019-04-06T23:10:05.435Z,73.40
2019-04-06T23:12:34.730Z,74.43
2019-04-06T23:15:03.831Z,74.43
2019-04-06T23:17:34.547Z,75.09
2019-04-06T23:20:04.683Z,73.87
2019-04-06T23:22:34.017Z,73.87
2019-04-06T23:25:03.994Z,73.15
2019-04-06T23:27:33.574Z,73.33
2019-04-06T23:30:03.594Z,73.74
2019-04-06T23:32:32.000Z,73.46
2019-04-06T23:35:02.501Z,73.21
2019-04-06T23:37:32.447Z,73.12
2019-04-06T23:40:01.649Z,72.83
2019-04-06T23:42:32.117Z,73.18
2019-04-06T23:45:02.471Z,73.44
2019-04-06T23:47:35.807Z,73.02
2019-04-06T23:50:05.661Z,73.10
2019-04-06T23:52:35.387Z,73.22
2019-04-06T23:55:05.502Z,73.22
2019-04-06T23:57:34.827Z,73.63
